Time;durP1;ratioP1;P1;durP2;ratioP2;P2;SDS_P1;SDS_P2;PMS_P1;PMS_P2;Temp;Humidity;BMP_temperature;BMP_pressure;BME280_temperature;BME280_humidity;BME280_pressure;Samples;Min_cycle;Max_cycle;Signal;HPM_P1;HPM_P2
2024/04/07 00:02:28;;;;;;;17.55;7.90;;;;;;;30.81;84.61;100800.44;5033471;28;66425;-34
2024/04/07 00:04:57;;;;;;;20.73;10.00;;;;;;;30.87;87.29;100816.66;5024170;28;69985;-33
2024/04/07 00:07:26;;;;;;;15.80;8.98;;;;;;;30.89;88.03;100828.06;5023431;28;65682;-34
2024/04/07 00:09:56;;;;;;;15.27;9.52;;;;;;;30.87;88.85;100826.63;5040826;28;70543;-34
2024/04/07 00:12:24;;;;;;;20.50;9.82;;;;;;;30.90;89.06;100831.63;5023450;28;65680;-34
2024/04/07 00:14:53;;;;;;;12.35;9.52;;;;;;;30.91;89.01;100833.28;5023684;28;69414;-34
2024/04/07 00:17:22;;;;;;;14.98;9.00;;;;;;;30.85;90.00;100834.16;5016713;28;66953;-35
2024/04/07 00:19:51;;;;;;;14.57;8.93;;;;;;;30.88;89.74;100833.72;5023116;28;70705;-35
2024/04/07 00:22:20;;;;;;;14.60;8.45;;;;;;;30.84;92.43;100841.47;5021382;28;66662;-36
2024/04/07 00:24:49;;;;;;;13.20;9.48;;;;;;;30.92;90.06;100840.34;5039034;28;70318;-34
2024/04/07 00:27:19;;;;;;;28.38;10.30;;;;;;;30.91;91.45;100846.81;5031525;28;65788;-34
2024/04/07 00:29:48;;;;;;;21.15;10.55;;;;;;;30.91;90.54;100861.19;5038942;28;70134;-34
2024/04/07 00:32:17;;;;;;;27.58;10.70;;;;;;;30.89;92.24;100857.84;5037916;28;66186;-33
2024/04/07 00:34:50;;;;;;;23.45;10.50;;;;;;;30.97;95.03;100851.34;5037337;28;69768;-34
2024/04/07 00:37:21;;;;;;;16.48;10.10;;;;;;;30.94;91.29;100857.19;5040608;28;66147;-34
2024/04/07 00:39:49;;;;;;;27.33;10.60;;;;;;;30.87;91.55;100840.16;5029556;28;69459;-34
2024/04/07 00:42:31;;;;;;;16.80;9.82;;;;;;;31.00;94.50;100869.03;5028677;28;65652;-33
2024/04/07 00:45:03;;;;;;;20.02;10.43;;;;;;;31.01;92.39;100874.25;5040513;28;69346;-34
2024/04/07 00:47:35;;;;;;;21.20;10.90;;;;;;;31.04;91.61;100876.50;5037400;28;66442;-34
2024/04/07 00:50:05;;;;;;;23.80;9.90;;;;;;;31.06;90.54;100874.38;5029733;28;69896;-33
2024/04/07 00:52:34;;;;;;;18.90;9.63;;;;;;;31.02;92.34;100873.19;5036228;28;66353;-35
2024/04/07 00:55:03;;;;;;;10.48;7.88;;;;;;;31.06;91.44;100879.78;5027776;28;70023;-34
2024/04/07 00:57:32;;;;;;;12.10;8.02;;;;;;;31.08;92.30;100883.13;5037880;28;66822;-35
2024/04/07 01:00:05;;;;;;;20.02;8.75;;;;;;;31.10;95.67;100881.03;5023447;28;70423;-35
2024/04/07 01:02:34;;;;;;;20.67;8.55;;;;;;;31.04;93.18;100881.09;5038530;28;66246;-35
2024/04/07 01:05:03;;;;;;;13.35;8.43;;;;;;;31.14;92.61;100887.66;5038927;28;70074;-34
2024/04/07 01:07:32;;;;;;;17.25;8.45;;;;;;;31.14;92.60;100890.34;5023119;28;66719;-34
2024/04/07 01:10:01;;;;;;;10.48;6.72;;;;;;;31.07;92.92;100873.34;5037114;28;69206;-34
2024/04/07 01:12:30;;;;;;;13.35;6.40;;;;;;;31.23;92.39;100892.78;5034298;28;67187;-34
2024/04/07 01:14:59;;;;;;;18.00;6.07;;;;;;;31.23;94.28;100895.50;5038471;28;69632;-39
2024/04/07 01:17:28;;;;;;;13.07;5.85;;;;;;;31.23;93.60;100890.94;5020945;28;65296;-35
2024/04/07 01:19:56;;;;;;;16.90;5.97;;;;;;;31.26;94.36;100895.06;5037518;28;69918;-35
2024/04/07 01:22:26;;;;;;;7.93;5.53;;;;;;;31.28;94.61;100903.78;5036362;28;66586;-34
2024/04/07 01:24:54;;;;;;;14.38;6.05;;;;;;;31.29;94.21;100905.47;5040269;28;70596;-34
2024/04/07 01:27:23;;;;;;;7.50;5.75;;;;;;;31.35;94.93;100905.41;5038165;28;65561;-34
2024/04/07 01:29:52;;;;;;;6.85;5.68;;;;;;;31.29;94.88;100900.88;5039506;28;69900;-37
2024/04/07 01:32:21;;;;;;;25.77;7.15;;;;;;;31.36;95.06;100906.25;5038554;28;65603;-34
2024/04/07 01:34:50;;;;;;;16.42;6.50;;;;;;;31.39;95.02;100906.63;5037783;28;70734;-34
2024/04/07 01:37:19;;;;;;;12.07;5.05;;;;;;;31.44;94.31;100903.25;5021617;28;66495;-35
2024/04/07 01:39:48;;;;;;;12.25;5.82;;;;;;;31.43;93.21;100901.63;5023140;28;69826;-35
2024/04/07 01:42:17;;;;;;;13.32;5.28;;;;;;;31.49;93.84;100908.84;5003704;28;66108;-34
2024/04/07 01:44:46;;;;;;;9.45;5.75;;;;;;;31.50;93.35;100907.78;5015594;28;70007;-35
2024/04/07 01:47:15;;;;;;;13.48;6.18;;;;;;;31.54;93.69;100910.91;5036070;28;66588;-34
2024/04/07 01:49:43;;;;;;;8.23;5.47;;;;;;;31.56;94.44;100901.44;5022393;28;70293;-35
2024/04/07 01:52:12;;;;;;;12.52;5.45;;;;;;;31.60;93.12;100908.09;5012744;28;65913;-34
2024/04/07 01:54:41;;;;;;;15.07;4.88;;;;;;;31.59;93.11;100909.16;5023008;28;70061;-35
2024/04/07 01:57:11;;;;;;;10.32;5.38;;;;;;;31.67;94.31;100918.03;5021396;28;66187;-34
2024/04/07 01:59:40;;;;;;;14.88;5.50;;;;;;;31.68;92.27;100906.13;5038069;28;69245;-35
2024/04/07 02:02:09;;;;;;;12.52;5.55;;;;;;;31.74;92.80;100918.81;5006265;28;65736;-34
2024/04/07 02:04:38;;;;;;;8.57;7.55;;;;;;;31.76;92.13;100905.84;5038076;28;70730;-35
2024/04/07 02:07:07;;;;;;;12.90;6.47;;;;;;;31.78;93.80;100909.97;5036920;28;66637;-35
2024/04/07 02:09:36;;;;;;;8.00;6.78;;;;;;;31.85;92.59;100899.06;5037993;28;70701;-34
2024/04/07 02:12:06;;;;;;;8.73;5.35;;;;;;;31.89;92.25;100904.88;5037912;28;67270;-33
2024/04/07 02:14:34;;;;;;;11.60;5.03;;;;;;;31.95;92.87;100910.22;5038927;28;69928;-33
2024/04/07 02:17:03;;;;;;;7.97;4.65;;;;;;;31.97;93.24;100897.28;5035345;28;66708;-34
2024/04/07 02:19:32;;;;;;;6.63;4.40;;;;;;;32.00;95.41;100907.66;5025703;28;70209;-33
2024/04/07 02:22:01;;;;;;;4.65;3.78;;;;;;;32.03;93.82;100906.38;5037714;28;66762;-34
2024/04/07 02:24:29;;;;;;;4.35;3.92;;;;;;;32.07;95.19;100896.75;5018362;28;70595;-34
2024/04/07 02:26:58;;;;;;;4.88;3.78;;;;;;;32.16;93.05;100905.41;5033466;28;66590;-34
2024/04/07 02:29:28;;;;;;;6.78;4.85;;;;;;;32.18;93.31;100903.28;5038394;28;70654;-34
2024/04/07 02:31:56;;;;;;;5.45;4.95;;;;;;;32.22;92.67;100904.50;5036900;28;65531;-34
2024/04/07 02:34:25;;;;;;;6.70;6.20;;;;;;;32.19;92.00;100899.53;5036280;28;70364;-34
2024/04/07 02:36:54;;;;;;;10.23;7.93;;;;;;;32.22;92.17;100907.19;5036873;28;66995;-34
2024/04/07 02:39:23;;;;;;;10.75;7.45;;;;;;;32.27;92.15;100904.63;5036138;28;70317;-34
2024/04/07 02:41:52;;;;;;;15.13;8.45;;;;;;;32.30;90.99;100895.19;5038032;28;65500;-34
2024/04/07 02:48:04;;;;;;;13.52;9.13;;;;;;;32.33;91.02;100894.75;5037900;28;70589;-34
2024/04/07 02:49:59;;;;;;;15.30;8.30;;;;;;;32.49;89.15;100900.38;5037140;28;69376;-34
2024/04/07 02:52:28;;;;;;;16.08;8.18;;;;;;;32.57;89.04;100895.66;5036052;28;66607;-34
2024/04/07 02:54:57;;;;;;;14.55;7.20;;;;;;;32.62;88.98;100898.50;5032102;28;68092;-34
2024/04/07 02:57:26;;;;;;;11.70;7.65;;;;;;;32.66;88.44;100888.88;5032768;28;66728;-34
2024/04/07 02:59:55;;;;;;;13.25;7.13;;;;;;;32.69;88.42;100891.09;5038281;28;69838;-34
2024/04/07 03:02:23;;;;;;;13.23;7.35;;;;;;;32.73;88.31;100886.84;5039090;28;66414;-34
2024/04/07 03:04:53;;;;;;;8.55;6.72;;;;;;;32.74;88.21;100880.38;5039416;28;70019;-34
2024/04/07 03:07:23;;;;;;;6.55;5.95;;;;;;;32.75;88.02;100879.31;5037995;28;65457;-34
2024/04/07 03:09:55;;;;;;;7.30;6.03;;;;;;;32.81;88.05;100875.66;5037762;28;70006;-35
2024/04/07 03:12:24;;;;;;;8.10;6.47;;;;;;;32.85;87.70;100876.84;5038225;28;67064;-35
2024/04/07 03:14:54;;;;;;;11.68;6.75;;;;;;;32.87;87.55;100873.88;5038436;28;69571;-33
2024/04/07 03:17:23;;;;;;;10.95;6.68;;;;;;;32.91;87.32;100870.47;5037512;28;66581;-34
2024/04/07 03:19:52;;;;;;;7.95;6.55;;;;;;;32.94;87.26;100872.72;5022330;28;70147;-34
2024/04/07 03:22:21;;;;;;;7.40;6.63;;;;;;;32.99;86.76;100876.63;5020685;28;66700;-34
2024/04/07 03:24:50;;;;;;;7.55;6.32;;;;;;;32.99;86.75;100861.16;5039015;28;69536;-35
2024/04/07 03:27:19;;;;;;;7.72;6.82;;;;;;;33.05;86.54;100873.00;5037686;28;66831;-34
2024/04/07 03:29:50;;;;;;;7.60;5.85;;;;;;;33.05;86.47;100862.13;5037559;28;71749;-35
2024/04/07 03:32:20;;;;;;;6.45;5.93;;;;;;;33.09;86.00;100849.72;5038333;28;66937;-35
2024/04/07 03:34:49;;;;;;;11.88;5.97;;;;;;;33.13;86.06;100853.63;5037647;28;70656;-36
2024/04/07 03:37:18;;;;;;;7.05;5.53;;;;;;;33.13;85.75;100843.59;5020697;28;66578;-34
2024/04/07 03:39:47;;;;;;;5.60;5.10;;;;;;;33.14;85.66;100838.97;5038511;28;69443;-34
2024/04/07 03:42:19;;;;;;;6.40;5.63;;;;;;;33.20;85.54;100837.19;5004504;28;66645;-35
2024/04/07 03:44:48;;;;;;;7.22;5.68;;;;;;;33.22;85.47;100838.63;5024034;28;70731;-34
2024/04/07 03:47:17;;;;;;;5.78;4.70;;;;;;;33.24;85.37;100836.50;5041315;28;65405;-34
2024/04/07 03:49:47;;;;;;;6.82;5.25;;;;;;;33.11;85.34;100810.38;5040023;28;70336;-35
2024/04/07 03:52:15;;;;;;;7.35;4.95;;;;;;;33.32;85.23;100833.41;5040662;28;66293;-34
2024/04/07 03:54:45;;;;;;;5.25;4.72;;;;;;;33.32;85.11;100827.97;5040096;28;70365;-34
2024/04/07 03:57:14;;;;;;;12.43;5.13;;;;;;;33.35;84.92;100821.25;5042057;28;66021;-34
2024/04/07 03:59:44;;;;;;;5.40;4.90;;;;;;;33.40;84.75;100823.22;5023024;28;70647;-34
2024/04/07 04:02:31;;;;;;;5.07;4.57;;;;;;;33.42;84.54;100829.25;5042102;28;66307;-35
2024/04/07 04:05:04;;;;;;;5.25;4.80;;;;;;;33.45;84.64;100817.91;5034844;28;70339;-34
2024/04/07 04:07:38;;;;;;;6.60;4.45;;;;;;;33.46;84.06;100800.50;5037281;28;67101;-35
2024/04/07 04:10:10;;;;;;;4.70;4.40;;;;;;;33.49;84.45;100808.19;5025016;28;70396;-35
2024/04/07 04:12:39;;;;;;;5.70;5.10;;;;;;;33.55;84.25;100804.56;5023607;28;65431;-35
2024/04/07 04:15:07;;;;;;;4.90;4.50;;;;;;;33.58;84.01;100804.06;5041565;28;70347;-34
2024/04/07 04:17:37;;;;;;;4.85;4.40;;;;;;;33.61;83.76;100792.72;5041781;28;66574;-34
2024/04/07 04:20:08;;;;;;;6.80;4.25;;;;;;;33.64;83.72;100786.78;5024239;28;68972;-34
2024/04/07 04:22:37;;;;;;;4.60;3.90;;;;;;;33.64;83.88;100786.78;5040830;28;66569;-34
2024/04/07 04:25:07;;;;;;;4.45;4.07;;;;;;;33.66;83.86;100771.06;5041354;28;69948;-33
2024/04/07 04:27:36;;;;;;;4.53;4.22;;;;;;;33.71;83.45;100768.44;5040092;28;66401;-34
2024/04/07 04:30:06;;;;;;;4.35;4.03;;;;;;;33.72;83.29;100764.63;5040516;28;69622;-34
2024/04/07 04:32:35;;;;;;;4.63;4.22;;;;;;;33.76;83.10;100763.06;5030252;28;66403;-34
2024/04/07 04:35:05;;;;;;;4.32;4.00;;;;;;;33.81;83.04;100757.72;5039253;28;69701;-34
2024/04/07 04:37:34;;;;;;;4.78;3.95;;;;;;;33.83;83.19;100751.25;5031834;28;65579;-33
2024/04/07 04:40:05;;;;;;;4.10;3.80;;;;;;;33.85;82.96;100747.22;5037610;28;70290;-36
2024/04/07 04:42:38;;;;;;;4.00;3.65;;;;;;;33.80;82.99;100734.31;5039810;28;66538;-34
2024/04/07 04:45:07;;;;;;;4.43;4.03;;;;;;;33.89;82.63;100739.38;5023620;28;70694;-34
2024/04/07 04:47:36;;;;;;;3.38;3.10;;;;;;;33.91;82.39;100720.91;5041382;28;66535;-34
2024/04/07 04:50:10;;;;;;;4.30;3.88;;;;;;;33.94;82.71;100720.41;5040173;28;70216;-34
2024/04/07 04:52:40;;;;;;;3.63;3.38;;;;;;;33.95;82.84;100717.44;5039736;28;65374;-35
2024/04/07 04:55:08;;;;;;;4.20;3.80;;;;;;;33.96;82.27;100710.94;5040357;28;69166;-35
2024/04/07 04:57:37;;;;;;;4.28;3.85;;;;;;;34.01;82.52;100704.75;5023599;28;66464;-35
2024/04/07 05:00:07;;;;;;;5.07;3.75;;;;;;;34.04;82.32;100698.81;5022517;28;68942;-35
2024/04/07 05:02:36;;;;;;;5.10;4.10;;;;;;;34.07;82.42;100698.34;5040490;28;66367;-35
2024/04/07 05:05:05;;;;;;;3.50;3.20;;;;;;;34.13;82.23;100691.94;5039327;28;70708;-35
2024/04/07 05:07:36;;;;;;;4.78;3.80;;;;;;;34.11;81.97;100694.06;5039986;28;66085;-34
2024/04/07 05:10:05;;;;;;;3.42;3.13;;;;;;;34.16;82.16;100702.31;5041094;28;70439;-34
2024/04/07 05:12:35;;;;;;;3.65;3.35;;;;;;;34.20;81.92;100694.47;5039179;28;66634;-34
2024/04/07 05:15:04;;;;;;;3.85;3.55;;;;;;;34.05;81.81;100662.41;5041517;28;70024;-34
2024/04/07 05:17:33;;;;;;;4.00;3.50;;;;;;;34.23;81.82;100683.91;5040256;28;66030;-34
2024/04/07 05:20:04;;;;;;;5.15;3.42;;;;;;;34.27;81.34;100681.53;5022922;28;70388;-34
2024/04/07 05:22:35;;;;;;;3.22;2.92;;;;;;;34.31;81.33;100681.84;5040126;28;66644;-34
2024/04/07 05:25:05;;;;;;;3.10;2.90;;;;;;;34.31;81.08;100666.34;5040775;28;70165;-34
2024/04/07 05:27:36;;;;;;;4.07;3.20;;;;;;;34.31;81.25;100651.91;5023156;28;65793;-34
2024/04/07 05:30:06;;;;;;;3.40;3.10;;;;;;;34.38;81.03;100658.00;5039722;28;69928;-34
2024/04/07 05:32:35;;;;;;;4.55;3.03;;;;;;;34.39;81.02;100659.66;5040005;28;66598;-35
2024/04/07 05:35:04;;;;;;;5.28;3.65;;;;;;;34.43;81.31;100658.06;5037728;28;70770;-34
2024/04/07 05:37:33;;;;;;;3.40;3.10;;;;;;;34.44;81.20;100644.22;5040457;28;65198;-36
2024/04/07 05:40:05;;;;;;;3.30;3.10;;;;;;;34.50;80.64;100652.47;5022226;28;68773;-34
2024/04/07 05:42:33;;;;;;;;;;;;;;;34.44;80.82;100643.41;5039934;28;66990;-34
2024/04/07 05:45:03;;;;;;;3.30;3.00;;;;;;;34.59;80.43;100637.38;5039480;28;70216;-39
2024/04/07 05:47:32;;;;;;;3.63;3.33;;;;;;;34.60;80.91;100626.22;5040436;28;65984;-35
2024/04/07 05:50:01;;;;;;;4.00;2.78;;;;;;;34.63;80.67;100628.44;5037537;28;69993;-34
2024/04/07 05:52:30;;;;;;;2.88;2.58;;;;;;;34.64;80.37;100616.47;5040692;28;65175;-34
2024/04/07 05:54:59;;;;;;;3.58;3.28;;;;;;;34.66;80.29;100608.88;5039088;28;69041;-34
2024/04/07 05:57:28;;;;;;;3.17;2.88;;;;;;;34.59;80.09;100591.06;5039662;28;66007;-35
2024/04/07 05:59:56;;;;;;;4.32;3.10;;;;;;;34.72;80.10;100600.75;5024081;28;67580;-34
2024/04/07 06:02:28;;;;;;;5.30;2.92;;;;;;;34.75;79.92;100594.81;5032151;28;66270;-35
2024/04/07 06:04:57;;;;;;;2.78;2.58;;;;;;;34.78;79.85;100583.41;5027252;28;70151;-34
2024/04/07 06:07:26;;;;;;;3.65;2.97;;;;;;;34.81;79.69;100582.88;5039831;28;65751;-35
2024/04/07 06:09:56;;;;;;;5.70;2.92;;;;;;;34.83;80.24;100572.56;5039534;28;70414;-34
2024/04/07 06:12:26;;;;;;;2.92;2.72;;;;;;;34.86;79.49;100564.69;5020656;28;66500;-34
2024/04/07 06:14:55;;;;;;;2.47;2.28;;;;;;;34.89;80.15;100552.47;5040290;28;69622;-34
2024/04/07 06:17:24;;;;;;;3.72;2.83;;;;;;;34.91;79.80;100551.13;5038741;28;66747;-33
2024/04/07 06:19:53;;;;;;;2.95;2.75;;;;;;;34.96;79.35;100547.63;5039201;28;69312;-33
2024/04/07 06:22:22;;;;;;;2.85;2.65;;;;;;;35.00;79.82;100545.22;5038341;28;66264;-34
2024/04/07 06:24:51;;;;;;;3.10;2.80;;;;;;;35.03;79.80;100536.53;5022117;28;70049;-34
2024/04/07 06:27:20;;;;;;;3.42;3.13;;;;;;;34.91;79.29;100507.53;5037824;28;65839;-34
2024/04/07 06:29:49;;;;;;;2.85;2.65;;;;;;;35.12;79.38;100529.56;5040253;28;69889;-35
2024/04/07 06:32:19;;;;;;;2.95;2.65;;;;;;;35.17;79.52;100532.34;5038053;28;66646;-34
2024/04/07 06:34:48;;;;;;;3.03;2.83;;;;;;;35.22;79.40;100528.84;5038338;28;70212;-35
2024/04/07 06:37:17;;;;;;;2.80;2.60;;;;;;;35.24;79.26;100526.66;5037253;28;65217;-35
2024/04/07 06:39:46;;;;;;;3.50;2.10;;;;;;;35.30;79.10;100511.97;5029620;28;70619;-35
2024/04/07 06:42:30;;;;;;;4.43;2.83;;;;;;;35.31;78.19;100508.19;5037340;28;66075;-35
2024/04/07 06:45:00;;;;;;;2.80;2.60;;;;;;;35.39;78.95;100502.25;5037966;28;70247;-36
2024/04/07 06:47:33;;;;;;;3.83;2.58;;;;;;;35.45;78.27;100497.66;5038644;28;65996;-34
2024/04/07 06:50:03;;;;;;;3.45;2.33;;;;;;;35.45;78.72;100495.75;5038000;28;69749;-34
2024/04/07 06:52:34;;;;;;;3.30;2.22;;;;;;;35.54;78.25;100493.38;5038911;28;66541;-35
2024/04/07 06:55:05;;;;;;;3.20;2.72;;;;;;;35.60;78.63;100488.81;5038217;28;70442;-34
2024/04/07 06:57:38;;;;;;;2.78;2.58;;;;;;;35.65;78.05;100483.38;5037622;28;66635;-34
2024/04/07 07:00:07;;;;;;;2.47;2.28;;;;;;;35.71;78.00;100491.34;5037501;28;69916;-34
2024/04/07 07:02:36;;;;;;;6.90;2.35;;;;;;;35.76;77.87;100479.63;5038066;28;65694;-34
2024/04/07 07:05:06;;;;;;;2.45;2.25;;;;;;;35.86;77.74;100489.78;5028190;28;70091;-33
2024/04/07 07:07:36;;;;;;;4.57;2.10;;;;;;;35.86;77.54;100479.72;5038725;28;65381;-35
2024/04/07 07:10:06;;;;;;;13.10;2.83;;;;;;;35.69;78.05;100452.59;5037152;28;71278;-34
2024/04/07 07:12:35;;;;;;;26.90;2.60;;;;;;;35.87;77.51;100485.97;5038214;28;66584;-35
2024/04/07 07:15:05;;;;;;;12.27;2.28;;;;;;;35.81;74.43;100471.47;5022462;28;70515;-33
2024/04/07 07:17:34;;;;;;;5.53;2.55;;;;;;;35.77;72.91;100470.34;5035845;28;66946;-35
2024/04/07 07:20:04;;;;;;;6.80;2.38;;;;;;;35.70;72.13;100462.41;5037493;28;71020;-34
2024/04/07 07:22:33;;;;;;;3.38;2.20;;;;;;;35.68;70.26;100466.47;5033014;28;66323;-34
2024/04/07 07:25:05;;;;;;;7.45;2.35;;;;;;;35.58;69.12;100450.88;5033979;28;70233;-35
2024/04/07 07:27:34;;;;;;;4.20;1.77;;;;;;;35.49;67.45;100458.69;5036509;28;66666;-36
2024/04/07 07:30:04;;;;;;;5.55;1.88;;;;;;;35.47;65.93;100449.97;5038931;28;70561;-34
2024/04/07 07:32:34;;;;;;;3.92;2.08;;;;;;;35.45;66.43;100452.13;5009988;28;66438;-35
2024/04/07 07:35:03;;;;;;;3.03;1.95;;;;;;;35.41;64.21;100442.84;5037663;28;69640;-35
2024/04/07 07:37:32;;;;;;;2.20;1.77;;;;;;;35.40;64.27;100438.44;5021216;28;65760;-34
2024/04/07 07:40:01;;;;;;;6.30;1.88;;;;;;;35.39;62.50;100431.34;5039045;28;69613;-34
2024/04/07 07:42:30;;;;;;;4.47;1.95;;;;;;;35.36;63.36;100427.25;5037365;28;66220;-34
2024/04/07 07:44:59;;;;;;;1.60;1.38;;;;;;;35.36;62.03;100426.44;5024059;28;70360;-35
2024/04/07 07:47:28;;;;;;;4.30;1.90;;;;;;;35.39;62.11;100436.00;5039176;28;66394;-35
2024/04/07 07:49:58;;;;;;;1.33;1.23;;;;;;;35.40;62.59;100438.44;5018366;28;69860;-34
2024/04/07 07:52:29;;;;;;;3.72;1.42;;;;;;;35.38;62.21;100435.16;5031534;28;65817;-33
2024/04/07 07:54:58;;;;;;;2.72;2.15;;;;;;;35.40;62.36;100430.25;5006330;28;69815;-36
2024/04/07 07:57:26;;;;;;;2.20;1.42;;;;;;;35.38;61.09;100426.97;5014921;28;66329;-34
2024/04/07 07:59:55;;;;;;;3.20;1.20;;;;;;;35.43;61.84;100420.72;5021238;28;69933;-35
2024/04/07 08:02:25;;;;;;;1.60;1.50;;;;;;;35.40;60.75;100422.06;5039256;28;65752;-34
2024/04/07 08:04:54;;;;;;;2.05;1.48;;;;;;;35.30;59.94;100394.72;5037872;28;70457;-34
2024/04/07 08:07:23;;;;;;;5.35;1.58;;;;;;;35.51;60.85;100421.06;5039468;28;66073;-34
2024/04/07 08:09:52;;;;;;;1.95;1.60;;;;;;;35.51;59.97;100421.06;5038620;28;69982;-34
2024/04/07 08:12:22;;;;;;;2.72;1.08;;;;;;;35.52;60.94;100420.00;5038397;28;66958;-33
2024/04/07 08:14:51;;;;;;;1.88;1.30;;;;;;;35.52;59.05;100419.16;5031770;28;69774;-35
2024/04/07 08:17:20;;;;;;;14.65;1.48;;;;;;;35.52;59.82;100419.16;5035671;28;66519;-34
2024/04/07 08:19:50;;;;;;;1.65;1.38;;;;;;;35.53;59.66;100423.53;5036965;28;70281;-35
2024/04/07 08:22:20;;;;;;;2.80;1.63;;;;;;;35.54;60.00;100412.34;5037867;28;66762;-34
2024/04/07 08:24:49;;;;;;;5.82;1.40;;;;;;;35.52;59.86;100414.53;5022372;28;70674;-34
2024/04/07 08:27:22;;;;;;;3.38;1.45;;;;;;;35.47;58.70;100406.31;5040276;28;66100;-33
2024/04/07 08:29:52;;;;;;;1.40;1.20;;;;;;;35.55;59.71;100402.25;5030810;28;70603;-35
2024/04/07 08:32:21;;;;;;;1.60;1.25;;;;;;;35.55;58.73;100397.66;5023580;28;66027;-34
2024/04/07 08:34:50;;;;;;;1.48;1.38;;;;;;;35.50;57.93;100404.97;5038524;28;70593;-38
2024/04/07 08:37:19;;;;;;;2.00;1.45;;;;;;;35.51;58.99;100410.16;5041876;28;65581;-36
2024/04/07 08:39:48;;;;;;;1.42;1.05;;;;;;;35.41;57.33;100412.84;5040358;28;70111;-35
2024/04/07 08:42:19;;;;;;;1.98;1.13;;;;;;;35.48;58.65;100407.94;5017776;28;66050;-35
2024/04/07 08:44:55;;;;;;;2.13;1.17;;;;;;;35.53;59.00;100405.25;5026725;28;70688;-35
2024/04/07 08:47:26;;;;;;;1.42;0.98;;;;;;;35.47;58.09;100400.88;5025075;28;65644;-34
2024/04/07 08:49:57;;;;;;;4.90;1.20;;;;;;;35.47;57.34;100400.06;5035079;28;69077;-34
2024/04/07 08:52:27;;;;;;;2.28;1.25;;;;;;;35.45;58.36;100402.22;5037166;28;65316;-34
2024/04/07 08:54:57;;;;;;;2.20;1.30;;;;;;;35.38;57.61;100399.69;5040703;28;69414;-34
2024/04/07 08:57:26;;;;;;;6.90;1.45;;;;;;;35.44;58.75;100401.41;5039788;28;65642;-36
2024/04/07 08:59:58;;;;;;;2.38;1.10;;;;;;;35.39;57.83;100397.81;5041555;28;69968;-35
2024/04/07 09:02:31;;;;;;;1.30;1.20;;;;;;;35.27;56.31;100407.00;5039456;28;66581;-34
2024/04/07 09:05:00;;;;;;;7.38;1.50;;;;;;;35.26;58.40;100399.91;5024026;28;69546;-34
2024/04/07 09:07:29;;;;;;;1.95;1.40;;;;;;;35.25;58.04;100392.81;5038464;28;66153;-35
2024/04/07 09:09:59;;;;;;;2.47;1.10;;;;;;;35.32;58.39;100404.28;5031733;28;70214;-34
2024/04/07 09:12:28;;;;;;;2.50;1.25;;;;;;;35.27;58.31;100393.38;5040775;28;65856;-35
2024/04/07 09:14:57;;;;;;;4.57;1.23;;;;;;;35.30;57.74;100400.19;5040241;28;69830;-34
2024/04/07 09:17:29;;;;;;;2.30;1.40;;;;;;;35.24;58.33;100406.69;5040951;28;66512;-34
2024/04/07 09:19:59;;;;;;;5.70;1.30;;;;;;;35.15;57.77;100403.63;5026043;28;69925;-38
2024/04/07 09:22:27;;;;;;;1.90;1.20;;;;;;;35.27;57.92;100403.44;5035553;28;65818;-35
2024/04/07 09:25:01;;;;;;;2.08;1.25;;;;;;;35.17;57.39;100412.38;5015408;28;69123;-35
2024/04/07 09:27:30;;;;;;;7.53;1.45;;;;;;;35.11;57.36;100402.53;5036736;28;67397;-35
2024/04/07 09:30:00;;;;;;;2.50;1.50;;;;;;;35.21;58.43;100415.41;5037169;28;69967;-34
2024/04/07 09:32:29;;;;;;;11.05;1.30;;;;;;;35.13;58.04;100409.34;5030135;28;66766;-34
2024/04/07 09:34:59;;;;;;;4.25;1.73;;;;;;;35.06;58.67;100410.66;5038661;28;70640;-36
2024/04/07 09:37:29;;;;;;;5.38;1.30;;;;;;;35.06;58.17;100416.91;5040405;28;66319;-35
2024/04/07 09:39:58;;;;;;;7.90;1.90;;;;;;;35.05;58.28;100420.72;5035938;28;69838;-35
2024/04/07 09:42:28;;;;;;;4.10;1.52;;;;;;;35.18;59.78;100421.38;5024162;28;66822;-35
2024/04/07 09:45:03;;;;;;;5.87;1.63;;;;;;;35.02;60.25;100377.63;5018319;28;70405;-34
2024/04/07 09:47:44;;;;;;;8.15;1.50;;;;;;;35.26;60.23;100416.25;5040043;28;65662;-35
2024/04/07 09:50:34;;;;;;;5.53;1.20;;;;;;;35.29;60.99;100426.63;5031043;28;70338;-34
2024/04/07 09:53:18;;;;;;;7.77;1.60;;;;;;;35.33;62.29;100424.22;5036600;28;66953;-35
2024/04/07 09:55:52;;;;;;;9.00;1.60;;;;;;;35.42;63.10;100430.84;5039440;28;70451;-34
2024/04/07 09:58:23;;;;;;;4.72;1.90;;;;;;;35.26;64.00;100402.63;5031082;28;65883;-34
2024/04/07 10:00:53;;;;;;;2.85;1.45;;;;;;;35.48;63.86;100437.94;5023692;28;70284;-35
2024/04/07 10:03:23;;;;;;;4.05;1.55;;;;;;;35.53;66.38;100440.72;5024153;28;66337;-34
2024/04/07 10:05:52;;;;;;;5.47;2.22;;;;;;;35.62;68.14;100435.63;5031270;28;70569;-34
2024/04/07 10:08:22;;;;;;;8.55;2.40;;;;;;;35.72;67.27;100438.41;5030034;28;66017;-34
2024/04/07 10:10:51;;;;;;;2.78;1.48;;;;;;;35.78;68.20;100450.19;5036328;28;70661;-35
2024/04/07 10:13:24;;;;;;;10.30;2.35;;;;;;;35.82;68.49;100448.56;5038436;28;66687;-34
2024/04/07 10:15:58;;;;;;;10.27;2.15;;;;;;;35.87;67.82;100448.59;5040028;28;69538;-35
2024/04/07 10:18:28;;;;;;;10.45;2.25;;;;;;;35.75;68.29;100413.34;5040358;28;66780;-34
2024/04/07 10:20:57;;;;;;;3.33;2.33;;;;;;;35.94;68.67;100453.78;5022186;28;70454;-34
2024/04/07 10:23:27;;;;;;;6.35;1.90;;;;;;;35.91;69.18;100447.00;5030642;28;66218;-35
2024/04/07 10:26:04;;;;;;;8.77;2.55;;;;;;;35.76;70.13;100425.06;5039761;28;69790;-35
2024/04/07 10:28:53;;;;;;;3.97;2.17;;;;;;;35.98;70.33;100463.94;5035691;28;65655;-34
2024/04/07 10:31:32;;;;;;;4.65;2.53;;;;;;;36.01;70.56;100466.13;5035088;28;70450;-34
2024/04/07 10:34:03;;;;;;;5.60;2.70;;;;;;;36.00;69.68;100467.22;5016017;28;65495;-35
2024/04/07 10:36:34;;;;;;;4.35;2.22;;;;;;;35.86;70.08;100436.03;5039868;28;70499;-35
2024/04/07 10:39:10;;;;;;;5.25;3.15;;;;;;;36.03;69.88;100463.16;5039203;28;66806;-34
2024/04/07 10:41:40;;;;;;;3.08;2.03;;;;;;;36.03;70.48;100449.50;5027635;28;70048;-35
2024/04/07 10:44:09;;;;;;;3.58;2.10;;;;;;;36.06;70.14;100472.75;5031887;28;66155;-34
2024/04/07 10:46:38;;;;;;;4.63;2.50;;;;;;;36.05;70.82;100476.50;5036006;28;69433;-34
2024/04/07 10:49:08;;;;;;;5.75;2.70;;;;;;;36.08;70.96;100482.31;5038162;28;65756;-34
2024/04/07 10:51:37;;;;;;;3.65;2.28;;;;;;;36.09;70.95;100491.31;5038804;28;70196;-34
2024/04/07 10:54:08;;;;;;;6.55;2.97;;;;;;;35.92;70.93;100462.28;5018506;28;65839;-34
2024/04/07 10:56:37;;;;;;;7.60;2.40;;;;;;;36.10;70.77;100506.59;5016739;28;69839;-35
2024/04/07 10:59:07;;;;;;;2.40;1.88;;;;;;;36.08;71.26;100497.84;5022835;28;65958;-34
2024/04/07 11:01:36;;;;;;;5.85;3.05;;;;;;;36.08;70.87;100497.84;5030708;28;70935;-35
2024/04/07 11:04:05;;;;;;;3.03;2.40;;;;;;;36.00;71.23;100502.72;5033314;28;66228;-35
2024/04/07 11:06:35;;;;;;;7.22;2.47;;;;;;;36.05;71.19;100503.81;5035035;28;70591;-34
2024/04/07 11:09:07;;;;;;;6.93;2.72;;;;;;;36.01;71.32;100496.16;5034623;28;65751;-35
2024/04/07 11:11:43;;;;;;;4.95;1.98;;;;;;;36.02;72.26;100516.09;5036030;28;69256;-34
2024/04/07 11:14:15;;;;;;;4.20;2.53;;;;;;;36.01;71.84;100515.25;5038852;28;66272;-33
2024/04/07 11:16:44;;;;;;;4.22;2.20;;;;;;;35.97;72.42;100513.34;5038470;28;70871;-34
2024/04/07 11:19:21;;;;;;;2.28;1.92;;;;;;;35.97;72.48;100518.81;5039480;28;66766;-34
2024/04/07 11:21:51;;;;;;;2.97;2.30;;;;;;;35.97;72.39;100516.91;5035402;28;69798;-34
2024/04/07 11:24:22;;;;;;;3.15;1.98;;;;;;;35.96;72.60;100517.97;5031619;28;66724;-35
2024/04/07 11:26:55;;;;;;;3.30;2.38;;;;;;;35.88;72.11;100521.19;5038974;28;69528;-35
2024/04/07 11:29:25;;;;;;;6.18;2.35;;;;;;;35.89;73.13;100530.22;5036125;28;64878;-34
2024/04/07 11:31:57;;;;;;;4.18;2.60;;;;;;;35.78;73.01;100519.22;5026778;28;69125;-34
2024/04/07 11:34:29;;;;;;;11.60;2.28;;;;;;;35.80;72.95;100524.41;5031601;28;66627;-34
2024/04/07 11:36:58;;;;;;;3.10;2.45;;;;;;;35.88;73.34;100543.00;5038073;28;69770;-34
2024/04/07 11:39:27;;;;;;;4.03;2.50;;;;;;;35.83;73.19;100550.34;5039108;28;65706;-34
2024/04/07 11:41:56;;;;;;;3.85;2.88;;;;;;;35.85;73.46;100549.00;5021948;28;69723;-35